createdAt,value
2018-03-27T00:01:34.146Z,46.80
2018-03-27T00:04:00.278Z,37.83
2018-03-27T00:06:26.391Z,42.93
2018-03-27T00:08:53.267Z,38.53
2018-03-27T00:11:19.411Z,46.47
2018-03-27T00:13:45.610Z,36.87
2018-03-27T00:16:14.661Z,39.43
2018-03-27T00:18:41.631Z,45.97
2018-03-27T00:21:07.790Z,45.77
2018-03-27T00:23:33.894Z,44.40
2018-03-27T00:26:00.044Z,41.13
2018-03-27T00:28:38.365Z,43.63
2018-03-27T00:31:16.736Z,38.67
2018-03-27T00:33:55.030Z,52.27
2018-03-27T00:36:33.520Z,41.50
2018-03-27T00:39:11.706Z,44.77
2018-03-27T00:44:57.587Z,43.93
2018-03-27T00:47:23.715Z,41.47
2018-03-27T00:49:50.386Z,41.77
2018-03-27T00:52:16.654Z,48.20
2018-03-27T00:54:42.761Z,54.90
2018-03-27T00:57:08.870Z,51.90
2018-03-27T00:59:35.759Z,46.37
2018-03-27T01:02:01.881Z,41.37
2018-03-27T01:04:28.731Z,42.90
2018-03-27T01:06:55.645Z,51.73
2018-03-27T01:09:21.796Z,42.77
2018-03-27T01:11:48.588Z,48.93
2018-03-27T01:14:14.821Z,57.03
2018-03-27T01:16:43.284Z,48.20
2018-03-27T01:19:09.551Z,54.20
2018-03-27T01:21:35.755Z,48.53
2018-03-27T01:24:02.003Z,54.53
2018-03-27T01:26:28.141Z,48.37
2018-03-27T01:28:54.228Z,52.13
2018-03-27T01:31:20.330Z,53.13
2018-03-27T01:33:46.486Z,52.00
2018-03-27T01:36:13.342Z,53.70
2018-03-27T01:38:42.093Z,53.67
2018-03-27T01:41:09.597Z,49.53
2018-03-27T01:43:35.918Z,45.03
2018-03-27T01:46:02.068Z,50.30
2018-03-27T01:48:28.205Z,59.70
2018-03-27T01:50:54.323Z,62.97
2018-03-27T01:53:20.466Z,54.87
2018-03-27T01:55:46.643Z,54.83
2018-03-27T01:58:12.784Z,63.53
2018-03-27T02:00:38.925Z,48.77
2018-03-27T02:03:05.054Z,48.60
2018-03-27T02:05:31.210Z,49.30
2018-03-27T02:07:58.057Z,60.60
2018-03-27T02:10:24.927Z,52.07
2018-03-27T02:12:57.251Z,60.60
2018-03-27T02:15:30.856Z,66.10
2018-03-27T02:18:03.171Z,51.70
2018-03-27T02:20:35.439Z,63.67
2018-03-27T02:23:02.528Z,67.63
2018-03-27T02:25:28.646Z,56.13
2018-03-27T02:27:54.751Z,59.57
2018-03-27T02:30:20.881Z,60.77
2018-03-27T02:32:47.027Z,55.13
2018-03-27T02:35:13.185Z,53.23
2018-03-27T02:37:39.381Z,60.67
2018-03-27T02:40:06.248Z,60.80
2018-03-27T02:42:33.080Z,57.00
2018-03-27T02:44:59.232Z,58.83
2018-03-27T02:47:25.369Z,57.87
2018-03-27T02:49:52.225Z,69.20
2018-03-27T02:52:19.086Z,54.63
2018-03-27T02:54:45.227Z,56.30
2018-03-27T02:57:15.118Z,67.10
2018-03-27T02:59:41.271Z,56.83
2018-03-27T03:02:10.419Z,50.87
2018-03-27T03:04:36.680Z,75.67
2018-03-27T03:07:02.825Z,64.30
2018-03-27T03:09:28.936Z,72.93
2018-03-27T03:11:55.074Z,75.27
2018-03-27T03:14:21.211Z,69.00
2018-03-27T03:16:47.362Z,67.93
2018-03-27T03:19:13.494Z,73.23
2018-03-27T03:21:39.698Z,66.03
2018-03-27T03:24:07.189Z,72.23
2018-03-27T03:26:33.482Z,61.00
2018-03-27T03:28:59.602Z,58.07
2018-03-27T03:31:25.717Z,62.73
2018-03-27T03:33:51.854Z,72.90
2018-03-27T03:36:18.675Z,74.33
2018-03-27T03:38:44.810Z,67.23
2018-03-27T03:41:10.934Z,61.97
2018-03-27T03:43:37.054Z,58.07
2018-03-27T03:46:03.230Z,62.83
2018-03-27T03:48:29.350Z,70.43
2018-03-27T03:50:55.488Z,63.35
2018-03-27T03:53:21.607Z,69.22
2018-03-27T03:55:47.751Z,68.57
2018-03-27T03:58:13.938Z,58.90
2018-03-27T04:00:40.806Z,68.47
2018-03-27T04:03:07.661Z,58.70
2018-03-27T04:05:33.777Z,61.22
2018-03-27T04:07:59.899Z,66.05
2018-03-27T04:10:26.032Z,70.97
2018-03-27T04:12:52.220Z,63.42
2018-03-27T04:15:27.347Z,71.62
2018-03-27T04:17:53.475Z,69.00
2018-03-27T04:20:19.656Z,68.80
2018-03-27T04:22:46.517Z,72.27
2018-03-27T04:25:12.666Z,77.63
2018-03-27T04:27:38.891Z,65.77
2018-03-27T04:30:05.074Z,69.03
2018-03-27T04:32:31.239Z,72.25
2018-03-27T04:34:57.490Z,77.65
2018-03-27T04:37:24.413Z,72.10
2018-03-27T04:39:50.547Z,81.35
2018-03-27T04:42:16.774Z,86.07
2018-03-27T04:44:43.201Z,78.70
2018-03-27T04:47:09.290Z,72.97
2018-03-27T04:49:35.504Z,75.93
2018-03-27T04:52:01.630Z,72.72
2018-03-27T04:54:27.842Z,96.73
2018-03-27T04:56:54.721Z,74.70
2018-03-27T04:59:20.934Z,81.47
2018-03-27T05:01:47.114Z,73.18
2018-03-27T05:04:13.253Z,71.65
2018-03-27T05:06:39.372Z,71.03
2018-03-27T05:09:06.668Z,73.90
2018-03-27T05:11:32.842Z,77.95
2018-03-27T05:13:58.991Z,78.57
2018-03-27T05:16:25.962Z,78.50
2018-03-27T05:18:52.842Z,87.17
2018-03-27T05:21:19.085Z,90.55
2018-03-27T05:23:45.242Z,84.97
2018-03-27T05:26:11.395Z,94.93
2018-03-27T05:28:37.510Z,79.50
2018-03-27T05:31:03.661Z,72.90
2018-03-27T05:33:29.834Z,87.22
2018-03-27T05:35:55.921Z,76.40
2018-03-27T05:38:22.242Z,70.37
2018-03-27T05:40:48.435Z,95.80
2018-03-27T05:43:14.559Z,94.32
2018-03-27T05:45:40.788Z,89.93
2018-03-27T05:48:06.915Z,89.80
2018-03-27T05:50:33.019Z,83.35
2018-03-27T05:52:59.199Z,83.28
2018-03-27T05:55:25.386Z,74.80
2018-03-27T05:57:51.563Z,97.28
2018-03-27T06:00:17.819Z,86.82
2018-03-27T06:02:43.980Z,102.47
2018-03-27T06:05:13.620Z,93.85
2018-03-27T06:07:39.834Z,100.77
2018-03-27T06:10:05.998Z,120.80
2018-03-27T06:12:32.098Z,99.53
2018-03-27T06:14:58.273Z,94.60
2018-03-27T06:17:24.469Z,86.53
2018-03-27T06:19:51.686Z,99.93
2018-03-27T06:22:19.117Z,94.03
2018-03-27T06:24:45.428Z,109.93
2018-03-27T06:27:12.494Z,93.80
2018-03-27T06:29:38.795Z,98.60
2018-03-27T06:32:05.003Z,95.10
2018-03-27T06:34:31.443Z,96.93
2018-03-27T06:36:57.782Z,97.10
2018-03-27T06:39:24.045Z,93.33
2018-03-27T06:41:50.233Z,99.03
2018-03-27T06:44:16.470Z,99.07
2018-03-27T06:46:42.978Z,102.10
2018-03-27T06:49:09.600Z,90.77
2018-03-27T06:51:35.946Z,95.63
2018-03-27T06:54:02.316Z,101.53
2018-03-27T06:56:28.812Z,102.50
2018-03-27T06:58:55.038Z,107.17
2018-03-27T07:01:21.335Z,107.80
2018-03-27T07:03:47.610Z,87.43
2018-03-27T07:06:14.663Z,96.17
2018-03-27T07:08:40.908Z,89.10
2018-03-27T07:11:07.173Z,86.50
2018-03-27T07:13:34.240Z,99.07
2018-03-27T07:16:00.522Z,80.40
2018-03-27T07:18:26.868Z,75.77
2018-03-27T07:20:53.099Z,87.30
2018-03-27T07:23:19.353Z,85.03
2018-03-27T07:25:45.690Z,90.27
2018-03-27T07:28:11.840Z,85.40
2018-03-27T07:30:38.103Z,87.93
2018-03-27T07:33:04.219Z,90.67
2018-03-27T07:35:31.528Z,84.87
2018-03-27T07:37:57.712Z,74.80
2018-03-27T07:40:23.996Z,82.43
2018-03-27T07:42:50.304Z,73.13
2018-03-27T07:45:16.568Z,73.83
2018-03-27T07:47:42.735Z,66.37
2018-03-27T07:50:08.912Z,71.90
2018-03-27T07:52:35.113Z,61.57
2018-03-27T07:55:02.079Z,61.47
2018-03-27T07:57:28.291Z,56.83
2018-03-27T07:59:54.429Z,68.20
2018-03-27T08:02:20.718Z,52.40
2018-03-27T08:04:46.847Z,65.50
2018-03-27T08:07:13.707Z,61.27
2018-03-27T08:09:40.667Z,58.17
2018-03-27T08:12:07.586Z,63.97
2018-03-27T08:14:33.741Z,69.83
2018-03-27T08:16:59.999Z,59.80
2018-03-27T08:19:27.400Z,66.63
2018-03-27T08:21:53.662Z,56.80
2018-03-27T08:24:20.335Z,51.90
2018-03-27T08:26:46.499Z,59.40
2018-03-27T08:29:12.853Z,63.93
2018-03-27T08:31:39.106Z,59.90
2018-03-27T08:34:05.402Z,50.73
2018-03-27T08:36:31.705Z,55.80
2018-03-27T08:38:57.902Z,60.30
2018-03-27T08:41:24.603Z,54.90
2018-03-27T08:43:50.860Z,84.73
2018-03-27T08:46:19.852Z,56.90
2018-03-27T08:48:46.400Z,57.47
2018-03-27T08:51:12.590Z,56.50
2018-03-27T08:53:38.716Z,60.83
2018-03-27T08:56:04.942Z,76.13
2018-03-27T08:58:31.296Z,62.83
2018-03-27T09:00:57.699Z,62.80
2018-03-27T09:03:24.177Z,77.93
2018-03-27T09:05:59.472Z,53.87
2018-03-27T09:08:26.421Z,63.00
2018-03-27T09:10:53.673Z,55.97
2018-03-27T09:13:20.006Z,57.37
2018-03-27T09:15:46.254Z,60.43
2018-03-27T09:18:13.681Z,61.20
2018-03-27T09:20:42.978Z,49.80
2018-03-27T09:23:09.707Z,46.87
2018-03-27T09:25:37.246Z,46.50
2018-03-27T09:28:03.453Z,43.83
2018-03-27T09:30:31.639Z,49.97
2018-03-27T09:32:57.796Z,44.70
2018-03-27T09:35:23.960Z,45.03
2018-03-27T09:37:51.044Z,41.60
2018-03-27T09:40:17.358Z,43.20
2018-03-27T09:42:43.586Z,42.70
2018-03-27T09:45:09.802Z,51.97
2018-03-27T09:47:35.950Z,43.03
2018-03-27T09:50:02.174Z,43.97
2018-03-27T09:52:29.177Z,37.83
2018-03-27T09:54:55.984Z,45.60
2018-03-27T09:57:22.545Z,34.00
2018-03-27T09:59:49.394Z,35.27
2018-03-27T10:02:15.751Z,38.77
2018-03-27T10:04:42.044Z,35.77
2018-03-27T10:07:09.040Z,57.93
2018-03-27T10:09:36.075Z,37.27
2018-03-27T10:12:03.004Z,24.83
2018-03-27T10:14:29.114Z,19.17
2018-03-27T10:16:55.382Z,21.53
2018-03-27T10:19:22.767Z,26.87
2018-03-27T10:21:49.015Z,24.53
2018-03-27T10:24:15.308Z,29.40
2018-03-27T10:26:41.738Z,22.20
2018-03-27T10:29:07.960Z,19.73
2018-03-27T10:31:34.150Z,28.00
2018-03-27T10:34:00.415Z,16.17
2018-03-27T10:36:26.680Z,14.60
2018-03-27T10:38:52.838Z,17.27
2018-03-27T10:41:20.036Z,19.07
2018-03-27T10:43:46.146Z,17.23
2018-03-27T10:46:12.551Z,18.87
2018-03-27T10:48:38.645Z,18.90
2018-03-27T10:51:04.917Z,19.63
2018-03-27T10:53:31.079Z,24.17
2018-03-27T10:55:57.853Z,24.03
2018-03-27T10:58:24.075Z,20.13
2018-03-27T11:00:50.306Z,18.10
2018-03-27T11:03:17.232Z,23.93
2018-03-27T11:05:43.365Z,23.30
2018-03-27T11:08:10.314Z,30.10
2018-03-27T11:10:36.418Z,33.07
2018-03-27T11:13:02.772Z,24.60
2018-03-27T11:15:29.728Z,22.40
2018-03-27T11:17:56.758Z,32.87
2018-03-27T11:20:23.055Z,27.00
2018-03-27T11:22:49.685Z,23.40
2018-03-27T11:25:18.435Z,23.70
2018-03-27T11:27:44.744Z,24.07
2018-03-27T11:30:10.880Z,22.97
2018-03-27T11:32:37.821Z,21.93
2018-03-27T11:35:04.833Z,28.83
2018-03-27T11:37:30.944Z,29.90
2018-03-27T11:39:57.130Z,26.67
2018-03-27T11:42:23.297Z,26.43
2018-03-27T11:44:50.199Z,28.90
2018-03-27T11:47:16.427Z,31.47
2018-03-27T11:49:43.207Z,28.67
2018-03-27T11:52:09.525Z,25.37
2018-03-27T11:54:35.797Z,31.10
2018-03-27T11:57:01.920Z,28.43
2018-03-27T11:59:28.007Z,26.27
2018-03-27T12:01:55.267Z,22.93
2018-03-27T12:04:21.455Z,35.53
2018-03-27T12:06:47.582Z,20.97
2018-03-27T12:09:13.975Z,23.20
2018-03-27T12:11:40.272Z,27.50
2018-03-27T12:14:06.513Z,30.10
2018-03-27T12:16:32.657Z,33.93
2018-03-27T12:18:58.791Z,31.20
2018-03-27T12:21:24.910Z,31.47
2018-03-27T12:23:51.735Z,27.40
2018-03-27T12:26:17.831Z,38.47
2018-03-27T12:28:43.952Z,30.27
2018-03-27T12:31:10.048Z,33.23
2018-03-27T12:33:36.245Z,34.13
2018-03-27T12:36:02.403Z,38.77
2018-03-27T12:38:28.793Z,36.87
2018-03-27T12:40:54.957Z,47.23
2018-03-27T12:43:21.166Z,36.17
2018-03-27T12:45:48.124Z,37.87
2018-03-27T12:48:14.293Z,37.40
2018-03-27T12:50:40.527Z,47.17
2018-03-27T12:53:08.870Z,58.00
2018-03-27T12:55:35.113Z,39.60
2018-03-27T12:58:01.271Z,39.83
2018-03-27T13:00:28.213Z,40.57
2018-03-27T13:02:54.764Z,36.67
2018-03-27T13:05:21.166Z,37.60
2018-03-27T13:07:47.384Z,40.50
2018-03-27T13:10:13.569Z,52.57
2018-03-27T13:12:39.793Z,36.80
2018-03-27T13:15:08.107Z,42.83
2018-03-27T13:17:34.388Z,38.40
2018-03-27T13:20:01.116Z,41.30
2018-03-27T13:22:27.406Z,63.33
2018-03-27T13:24:54.044Z,49.63
2018-03-27T13:27:20.198Z,39.27
2018-03-27T13:29:46.996Z,28.73
2018-03-27T13:32:13.979Z,35.33
2018-03-27T13:34:40.117Z,32.07
2018-03-27T13:37:07.576Z,41.50
2018-03-27T13:39:33.798Z,29.70
2018-03-27T13:41:59.950Z,26.00
2018-03-27T13:44:29.607Z,34.13
2018-03-27T13:46:55.946Z,24.80
2018-03-27T13:49:22.288Z,34.40
2018-03-27T13:51:48.559Z,33.20
2018-03-27T13:54:14.691Z,25.90
2018-03-27T13:56:40.922Z,31.20
2018-03-27T13:59:07.067Z,32.43
2018-03-27T14:01:33.343Z,31.63
2018-03-27T14:03:59.522Z,34.13
2018-03-27T14:06:26.382Z,39.17
2018-03-27T14:08:52.544Z,34.53
2018-03-27T14:11:19.131Z,30.70
2018-03-27T14:13:45.388Z,32.50
2018-03-27T14:16:11.585Z,41.57
2018-03-27T14:18:38.006Z,32.47
2018-03-27T14:21:05.252Z,31.03
2018-03-27T14:23:31.495Z,33.20
2018-03-27T14:25:57.842Z,33.00
2018-03-27T14:28:25.059Z,35.47
2018-03-27T14:30:51.320Z,31.23
2018-03-27T14:33:18.462Z,32.93
2018-03-27T14:35:44.747Z,38.87
2018-03-27T14:38:11.024Z,42.23
2018-03-27T14:40:37.236Z,42.50
2018-03-27T14:43:03.581Z,41.10
2018-03-27T14:45:30.598Z,46.03
2018-03-27T14:47:57.253Z,40.70
2018-03-27T14:50:24.888Z,47.50
2018-03-27T14:52:51.144Z,41.43
2018-03-27T14:55:17.689Z,46.03
2018-03-27T14:57:47.161Z,38.17
2018-03-27T15:00:13.495Z,45.23
2018-03-27T15:02:39.640Z,46.93
2018-03-27T15:05:05.942Z,48.63
2018-03-27T15:07:32.075Z,48.43
2018-03-27T15:09:59.023Z,34.90
2018-03-27T15:12:25.119Z,40.80
2018-03-27T15:14:51.324Z,41.73
2018-03-27T15:17:17.484Z,41.87
2018-03-27T15:19:43.687Z,41.67
2018-03-27T15:22:10.190Z,41.07
2018-03-27T15:24:36.390Z,48.90
2018-03-27T15:27:02.631Z,48.73
2018-03-27T15:29:28.845Z,45.93
2018-03-27T15:31:56.465Z,52.20
2018-03-27T15:34:22.611Z,44.73
2018-03-27T15:36:48.817Z,50.00
2018-03-27T15:39:14.912Z,59.83
2018-03-27T15:41:41.084Z,48.13
2018-03-27T15:44:07.463Z,54.37
2018-03-27T15:46:34.730Z,56.87
2018-03-27T15:49:00.997Z,55.53
2018-03-27T15:51:27.985Z,52.23
2018-03-27T15:53:54.256Z,59.47
2018-03-27T15:56:20.745Z,49.93
2018-03-27T15:58:47.681Z,52.07
2018-03-27T16:01:15.073Z,53.20
2018-03-27T16:03:43.199Z,50.80
2018-03-27T16:06:10.272Z,56.10
2018-03-27T16:08:38.785Z,58.43
2018-03-27T16:11:06.517Z,50.53
2018-03-27T16:13:32.795Z,50.00
2018-03-27T16:15:58.929Z,55.17
2018-03-27T16:18:25.072Z,65.90
2018-03-27T16:20:51.257Z,62.53
2018-03-27T16:23:18.123Z,51.33
2018-03-27T16:25:45.055Z,44.73
2018-03-27T16:28:11.163Z,45.27
2018-03-27T16:30:37.284Z,45.00
2018-03-27T16:33:03.443Z,31.00
2018-03-27T16:35:29.586Z,28.93
2018-03-27T16:37:55.736Z,22.53
2018-03-27T16:40:21.954Z,26.30
2018-03-27T16:42:48.094Z,28.30
2018-03-27T16:45:14.232Z,24.40
2018-03-27T16:47:40.363Z,29.17
2018-03-27T16:50:06.550Z,35.60
2018-03-27T16:52:36.116Z,22.97
2018-03-27T16:55:02.301Z,30.10
2018-03-27T16:57:28.399Z,25.50
2018-03-27T16:59:55.237Z,26.80
2018-03-27T17:02:21.834Z,29.33
2018-03-27T17:04:48.056Z,26.50
2018-03-27T17:07:14.210Z,36.57
2018-03-27T17:09:44.997Z,23.90
2018-03-27T17:12:11.898Z,27.80
2018-03-27T17:14:38.025Z,23.50
2018-03-27T17:17:13.876Z,20.67
2018-03-27T17:19:40.102Z,25.90
2018-03-27T17:22:15.364Z,27.23
2018-03-27T17:24:44.890Z,26.37
2018-03-27T17:27:11.201Z,29.23
2018-03-27T17:29:45.895Z,44.57
2018-03-27T17:32:12.198Z,32.20
2018-03-27T17:34:38.638Z,39.47
2018-03-27T17:37:04.873Z,39.23
2018-03-27T17:39:39.633Z,43.17
2018-03-27T17:42:07.582Z,43.27
2018-03-27T17:44:33.879Z,37.27
2018-03-27T17:47:00.084Z,43.57
2018-03-27T17:49:26.543Z,42.03
2018-03-27T17:51:52.752Z,50.40
2018-03-27T17:54:19.083Z,46.97
2018-03-27T17:56:45.390Z,45.33
2018-03-27T17:59:11.693Z,55.77
2018-03-27T18:01:37.914Z,42.90
2018-03-27T18:04:04.666Z,54.50
2018-03-27T18:06:32.386Z,51.30
2018-03-27T18:08:58.824Z,61.63
2018-03-27T18:11:26.491Z,48.23
2018-03-27T18:13:52.863Z,53.80
2018-03-27T18:16:19.107Z,59.27
2018-03-27T18:18:45.487Z,51.67
2018-03-27T18:21:12.906Z,58.87
2018-03-27T18:23:40.068Z,71.57
2018-03-27T18:26:06.364Z,67.47
2018-03-27T18:28:33.431Z,66.40
2018-03-27T18:30:59.915Z,64.40
2018-03-27T18:33:26.988Z,72.20
2018-03-27T18:35:53.367Z,68.60
2018-03-27T18:38:19.608Z,67.90
2018-03-27T18:40:45.914Z,71.77
2018-03-27T18:43:13.281Z,71.63
2018-03-27T18:45:42.640Z,72.53
2018-03-27T18:48:12.447Z,93.67
2018-03-27T18:50:38.887Z,81.93
2018-03-27T18:53:07.227Z,80.73
2018-03-27T18:55:33.764Z,78.60
2018-03-27T18:58:00.512Z,73.50
2018-03-27T19:00:28.047Z,83.83
2018-03-27T19:02:54.405Z,88.07
2018-03-27T19:05:20.713Z,78.47
2018-03-27T19:07:47.572Z,91.80
2018-03-27T19:10:14.736Z,92.73
2018-03-27T19:12:43.331Z,79.43
2018-03-27T19:15:10.240Z,75.37
2018-03-27T19:17:36.630Z,80.70
2018-03-27T19:20:04.480Z,78.60
2018-03-27T19:22:30.724Z,87.83
2018-03-27T19:24:56.906Z,87.30
2018-03-27T19:27:23.155Z,93.37
2018-03-27T19:29:49.269Z,90.83
2018-03-27T19:32:16.479Z,90.70
2018-03-27T19:34:43.621Z,90.60
2018-03-27T19:37:15.368Z,93.73
2018-03-27T19:39:42.701Z,91.93
2018-03-27T21:40:02.607Z,53.20
2018-03-27T21:42:28.791Z,67.00
2018-03-27T21:44:55.015Z,61.53
2018-03-27T21:47:21.956Z,64.00
2018-03-27T21:49:48.352Z,62.47
2018-03-27T21:52:14.463Z,60.80
2018-03-27T21:54:40.934Z,57.70
2018-03-27T21:57:07.152Z,63.50
2018-03-27T21:59:33.424Z,65.17
2018-03-27T22:01:59.700Z,67.20
2018-03-27T22:04:25.912Z,60.77
2018-03-27T22:06:52.098Z,72.93
2018-03-27T22:09:18.380Z,68.10
2018-03-27T22:11:46.396Z,61.13
2018-03-27T22:14:12.524Z,68.67
2018-03-27T22:16:38.740Z,60.53
2018-03-27T22:19:04.978Z,67.10
2018-03-27T22:21:31.186Z,63.73
2018-03-27T22:23:58.143Z,65.43
2018-03-27T22:26:24.263Z,70.07
2018-03-27T22:28:50.405Z,83.93
2018-03-27T22:31:16.580Z,61.47
2018-03-27T22:33:43.512Z,74.40
2018-03-27T22:36:10.659Z,69.47
2018-03-27T22:38:36.892Z,69.63
2018-03-27T22:41:05.596Z,68.07
2018-03-27T22:43:31.944Z,71.03
2018-03-27T22:45:58.134Z,81.37
2018-03-27T22:48:24.259Z,74.20
2018-03-27T22:50:51.184Z,65.60
2018-03-27T22:53:17.344Z,64.67
2018-03-27T22:55:45.709Z,69.30
2018-03-27T22:58:13.845Z,61.10
2018-03-27T23:00:40.205Z,74.93
2018-03-27T23:03:06.302Z,79.63
2018-03-27T23:05:33.211Z,74.10
2018-03-27T23:07:59.378Z,62.90
2018-03-27T23:10:26.309Z,69.40
2018-03-27T23:12:52.743Z,69.67
2018-03-27T23:15:18.859Z,64.77
2018-03-27T23:17:45.084Z,71.93
2018-03-27T23:20:14.315Z,62.57
2018-03-27T23:22:40.537Z,68.43
2018-03-27T23:25:07.483Z,68.53
2018-03-27T23:27:33.700Z,76.87
2018-03-27T23:29:59.854Z,79.70
2018-03-27T23:32:25.969Z,95.73
2018-03-27T23:34:52.235Z,76.27
2018-03-27T23:37:18.411Z,85.27
2018-03-27T23:39:44.539Z,95.53
2018-03-27T23:42:10.682Z,85.13
2018-03-27T23:44:37.628Z,80.90
2018-03-27T23:47:08.721Z,100.43
2018-03-27T23:49:34.835Z,87.73
2018-03-27T23:52:00.962Z,86.00
2018-03-27T23:54:27.816Z,93.70
2018-03-27T23:56:55.447Z,83.50
2018-03-27T23:59:21.714Z,77.30
